createdAt,value
2023-09-30T00:01:52.309Z,0.0
2023-09-30T00:05:11.708Z,0.0
2023-09-30T00:08:31.469Z,0.0
2023-09-30T00:12:00.670Z,0.0
2023-09-30T00:15:20.171Z,0.0
2023-09-30T00:18:39.365Z,0.0
2023-09-30T00:21:59.729Z,0.0
2023-09-30T00:25:19.180Z,0.0
2023-09-30T00:31:47.512Z,0.0
2023-09-30T00:35:06.962Z,0.0
2023-09-30T00:38:26.852Z,0.0
2023-09-30T00:41:46.628Z,0.0
2023-09-30T00:45:06.371Z,0.0
2023-09-30T00:48:27.192Z,0.0
2023-09-30T00:55:31.039Z,0.0
2023-09-30T00:58:50.922Z,0.0
2023-09-30T01:05:24.550Z,0.0
2023-09-30T01:08:44.444Z,0.0
2023-09-30T01:12:04.012Z,0.0
2023-09-30T01:15:23.385Z,0.0
2023-09-30T01:18:43.179Z,0.0
2023-09-30T01:22:03.359Z,0.0
2023-09-30T01:25:23.342Z,0.0
2023-09-30T01:28:43.442Z,0.0
2023-09-30T01:32:02.901Z,0.0
2023-09-30T01:35:22.180Z,0.0
2023-09-30T01:38:41.862Z,0.0
2023-09-30T01:42:01.042Z,0.0
2023-09-30T01:45:20.930Z,0.0
2023-09-30T01:48:40.731Z,0.0
2023-09-30T01:52:00.161Z,0.0
2023-09-30T01:55:19.951Z,0.0
2023-09-30T01:58:39.740Z,0.0
2023-09-30T02:03:38.418Z,0.0
2023-09-30T02:06:58.207Z,0.0
2023-09-30T02:10:18.099Z,0.0
2023-09-30T02:13:38.190Z,0.0
2023-09-30T02:16:57.966Z,0.0
2023-09-30T02:20:17.834Z,0.0
2023-09-30T02:23:36.810Z,0.0
2023-09-30T02:26:55.567Z,0.0
2023-09-30T02:30:15.757Z,0.0
2023-09-30T02:36:41.052Z,0.0
2023-09-30T02:41:04.779Z,0.0
2023-09-30T02:44:24.968Z,0.0
2023-09-30T02:47:44.572Z,0.0
2023-09-30T02:51:04.520Z,0.0
2023-09-30T02:54:24.362Z,0.0
2023-09-30T02:57:43.304Z,0.0
2023-09-30T03:01:03.233Z,0.0
2023-09-30T03:04:23.270Z,0.0
2023-09-30T03:07:43.243Z,0.0
2023-09-30T03:11:02.699Z,0.0
2023-09-30T03:14:23.006Z,0.0
2023-09-30T03:17:42.102Z,0.0
2023-09-30T03:21:02.153Z,0.0
2023-09-30T03:24:22.467Z,0.0
2023-09-30T03:28:41.726Z,0.0
2023-09-30T03:32:01.402Z,0.0
2023-09-30T03:36:39.749Z,0.0
2023-09-30T03:39:59.517Z,0.0
2023-09-30T03:43:19.274Z,0.0
2023-09-30T03:46:38.522Z,0.0
2023-09-30T03:49:58.133Z,0.0
2023-09-30T03:53:18.015Z,0.0
2023-09-30T03:56:37.697Z,0.0
2023-09-30T04:00:40.216Z,0.0
2023-09-30T04:03:59.887Z,0.0
2023-09-30T04:07:19.483Z,0.0
2023-09-30T04:10:39.319Z,0.0
2023-09-30T04:13:58.561Z,0.0
2023-09-30T04:17:18.788Z,0.0
2023-09-30T04:20:38.380Z,0.0
2023-09-30T04:23:58.288Z,0.0
2023-09-30T04:27:18.289Z,0.0
2023-09-30T04:30:38.104Z,0.0
2023-09-30T04:33:57.583Z,0.0
2023-09-30T04:37:16.973Z,0.0
2023-09-30T04:40:36.640Z,0.0
2023-09-30T04:43:56.721Z,0.0
2023-09-30T04:47:16.913Z,0.0
2023-09-30T04:52:34.272Z,0.0
2023-09-30T04:55:54.235Z,0.0
2023-09-30T04:59:13.104Z,0.0
2023-09-30T05:02:32.808Z,0.0
2023-09-30T05:05:52.577Z,0.0
2023-09-30T05:09:11.960Z,0.0
2023-09-30T05:12:31.747Z,0.0
2023-09-30T05:15:51.580Z,0.0
2023-09-30T05:19:11.811Z,0.0
2023-09-30T05:22:31.371Z,0.0
2023-09-30T05:31:53.046Z,0.0
2023-09-30T05:35:13.133Z,0.0
2023-09-30T05:38:32.706Z,0.0
2023-09-30T05:41:51.874Z,0.0
2023-09-30T05:45:12.187Z,0.0
2023-09-30T05:48:54.195Z,0.0
2023-09-30T05:52:14.684Z,4.431543624161073
2023-09-30T05:55:34.534Z,7.896644295302018
2023-09-30T05:58:53.922Z,8.57919463087248
2023-09-30T06:06:51.863Z,9.228187919463107
2023-09-30T06:10:11.967Z,10.273154362416102
2023-09-30T06:13:31.900Z,12.087919463087248
2023-09-30T06:16:51.397Z,13.818791946308721
2023-09-30T06:20:11.755Z,14.997315436241607
2023-09-30T06:23:31.435Z,16.423489932885907
2023-09-30T06:26:50.512Z,18.679194630872487
2023-09-30T06:30:10.431Z,20.22751677852349
2023-09-30T06:33:30.513Z,21.841610738255017
2023-09-30T06:39:24.866Z,25.350335570469806
2023-09-30T06:42:44.910Z,27.68255033557045
2023-09-30T06:46:03.803Z,30.281879194630868
2023-09-30T06:49:23.823Z,33.25704697986577
2023-09-30T06:52:43.785Z,36.998657718120846
2023-09-30T06:56:03.864Z,41.13154362416106
2023-09-30T06:59:24.096Z,45.21006711409398
2023-09-30T07:02:44.132Z,47.193288590604034
2023-09-30T07:06:03.763Z,48.16174496644295
2023-09-30T07:09:23.881Z,48.759731543624156
2023-09-30T07:12:43.710Z,49.75436241610733
2023-09-30T07:16:02.500Z,52.340268456375824
2023-09-30T07:19:22.283Z,49.23624161073818
2023-09-30T07:22:52.196Z,48.37852348993292
2023-09-30T07:26:18.664Z,50.6429530201342
2023-09-30T07:29:38.318Z,53.14832214765102
2023-09-30T07:32:58.253Z,55.54697986577184
2023-09-30T07:36:17.856Z,58.64697986577181
2023-09-30T07:42:19.486Z,67.13557046979871
2023-09-30T07:45:38.628Z,67.89395973154356
2023-09-30T07:48:58.506Z,68.18120805369138
2023-09-30T07:52:18.412Z,69.20469798657732
2023-09-30T07:55:37.359Z,70.30671140939596
2023-09-30T07:58:56.919Z,71.55838926174494
2023-09-30T08:02:56.488Z,71.66912751677863
2023-09-30T08:06:15.803Z,73.18322147651007
2023-09-30T08:09:35.519Z,75.88456375838932
2023-09-30T08:13:53.274Z,79.26241610738253
2023-09-30T08:17:13.712Z,81.09999999999998
2023-09-30T08:20:33.116Z,82.23221476510072
2023-09-30T08:23:52.978Z,84.67046979865786
2023-09-30T08:27:13.192Z,86.19060402684566
2023-09-30T08:30:32.559Z,87.45436241610716
2023-09-30T08:33:51.749Z,88.63288590604013
2023-09-30T08:37:11.907Z,90.57114093959726
2023-09-30T08:40:31.693Z,93.22080536912762
2023-09-30T08:43:50.774Z,95.11610738255025
2023-09-30T08:47:10.595Z,96.84026845637584
2023-09-30T08:50:29.806Z,99.06912751677851
2023-09-30T08:53:49.699Z,94.0422818791947
2023-09-30T08:57:10.170Z,92.25369127516777
2023-09-30T09:00:30.309Z,93.77382550335567
2023-09-30T09:03:49.505Z,94.25637583892608
2023-09-30T09:07:08.984Z,93.37852348993276
2023-09-30T09:10:27.993Z,94.28859060402688
2023-09-30T09:13:47.571Z,93.66510067114092
2023-09-30T09:17:07.644Z,91.07315436241609
2023-09-30T09:20:27.652Z,89.08255033557033
2023-09-30T09:25:50.204Z,88.44966442953016
2023-09-30T09:29:09.132Z,87.85234899328867
2023-09-30T09:33:06.636Z,88.39463087248325
2023-09-30T09:36:26.609Z,90.24093959731549
2023-09-30T09:39:46.250Z,89.28255033557052
2023-09-30T09:43:05.756Z,90.50469798657709
2023-09-30T09:48:37.380Z,91.83825503355702
2023-09-30T09:52:59.516Z,93.22214765100654
2023-09-30T09:57:52.050Z,95.24765100671144
2023-09-30T10:01:12.226Z,97.23288590604018
2023-09-30T10:04:31.896Z,98.75100671140937
2023-09-30T10:07:50.651Z,101.15302013422814
2023-09-30T10:15:37.695Z,109.865100671141
2023-09-30T10:18:57.139Z,117.3093959731545
2023-09-30T10:22:17.596Z,129.5228187919462
2023-09-30T10:25:37.278Z,153.3583892617449
2023-09-30T10:28:57.096Z,171.96241610738235
2023-09-30T10:32:17.038Z,173.46577181208053
2023-09-30T10:35:37.015Z,170.69798657718107
2023-09-30T10:38:56.191Z,142.4335570469798
2023-09-30T10:46:52.062Z,210.6040268456376
2023-09-30T10:52:34.462Z,227.35033557046972
2023-09-30T10:55:54.535Z,236.31006711409398
2023-09-30T11:00:13.612Z,233.9020134228187
2023-09-30T11:03:33.472Z,237.103355704698
2023-09-30T11:06:53.196Z,231.92885906040254
2023-09-30T11:10:13.001Z,212.41342281879207
2023-09-30T11:13:32.231Z,230.11275167785237
2023-09-30T11:16:51.749Z,230.31006711409412
2023-09-30T11:20:11.847Z,232.59664429530216
2023-09-30T11:23:31.191Z,160.68724832214772
2023-09-30T11:26:50.757Z,191.74362416107385
2023-09-30T11:30:10.516Z,182.5731543624161
2023-09-30T11:33:31.163Z,177.37516778523494
2023-09-30T11:36:50.471Z,210.12080536912765
2023-09-30T11:40:10.696Z,103.74630872483226
2023-09-30T11:43:30.363Z,171.40201342281858
2023-09-30T11:46:49.689Z,164.18389261744966
2023-09-30T11:50:09.119Z,214.76577181208052
2023-09-30T11:53:29.419Z,213.46174496644304
2023-09-30T11:56:49.088Z,210.46107382550352
2023-09-30T12:00:09.142Z,210.70738255033535
2023-09-30T12:03:28.782Z,194.2912751677853
2023-09-30T12:06:48.462Z,185.7657718120806
2023-09-30T12:10:07.856Z,173.72818791946315
2023-09-30T12:13:28.207Z,182.28657718120814
2023-09-30T12:16:48.338Z,185.6140939597316
2023-09-30T12:20:08.064Z,155.31543624161083
2023-09-30T12:23:28.065Z,134.01409395973144
2023-09-30T12:26:47.117Z,133.04161073825506
2023-09-30T12:30:06.702Z,136.41006711409386
2023-09-30T12:33:38.996Z,133.9067114093961
2023-09-30T12:36:58.935Z,131.6751677852349
2023-09-30T12:42:34.873Z,160.80872483221472
2023-09-30T12:45:54.566Z,159.09261744966457
2023-09-30T12:49:14.718Z,137.66510067114083
2023-09-30T12:52:34.478Z,97.88053691275162
2023-09-30T12:55:56.107Z,140.5912751677851
2023-09-30T13:01:50.859Z,143.04832214765116
2023-09-30T13:05:10.980Z,88.3053691275168
2023-09-30T13:08:31.608Z,94.75973154362424
2023-09-30T13:11:50.783Z,188.89865771812094
2023-09-30T13:15:10.645Z,164.24899328859067
2023-09-30T13:18:30.462Z,133.44093959731552
2023-09-30T13:21:49.998Z,95.46308724832211
2023-09-30T13:25:09.765Z,145.95771812080534
2023-09-30T13:28:29.925Z,80.43892617449659
2023-09-30T13:31:49.201Z,78.68590604026839
2023-09-30T13:35:09.373Z,100.56711409395977
2023-09-30T13:38:28.733Z,73.20805369127517
2023-09-30T13:41:47.906Z,67.1046979865772
2023-09-30T13:45:07.682Z,83.92550335570465
2023-09-30T13:49:52.158Z,60.72080536912747
2023-09-30T13:53:12.162Z,50.13557046979863
2023-09-30T13:56:31.406Z,54.65302013422819
2023-09-30T13:59:50.977Z,58.09463087248325
2023-09-30T14:05:43.290Z,47.240939597315446
2023-09-30T14:09:02.506Z,44.78859060402684
2023-09-30T14:12:22.606Z,50.940939597315406
2023-09-30T14:15:41.623Z,49.27651006711408
2023-09-30T14:19:54.889Z,41.90067114093959
2023-09-30T14:23:15.190Z,47.21073825503362
2023-09-30T14:26:34.554Z,49.724832214765115
2023-09-30T14:29:54.497Z,56.668456375838915
2023-09-30T14:33:14.162Z,50.24429530201339
2023-09-30T14:36:33.636Z,61.232885906040295
2023-09-30T14:39:53.311Z,85.87248322147657
2023-09-30T14:43:26.165Z,95.05033557046983
2023-09-30T14:46:45.754Z,82.69530201342289
2023-09-30T14:50:06.737Z,67.30067114093963
2023-09-30T14:53:26.529Z,53.09261744966445
2023-09-30T14:56:46.115Z,58.17315436241614
2023-09-30T15:00:05.479Z,61.9208053691274
2023-09-30T15:03:25.001Z,60.98657718120804
2023-09-30T15:06:43.986Z,56.15704697986575
2023-09-30T15:10:03.827Z,49.68456375838931
2023-09-30T15:13:22.984Z,44.15369127516781
2023-09-30T15:16:43.133Z,42.497986577181244
2023-09-30T15:20:02.572Z,44.05167785234903
2023-09-30T15:23:22.623Z,40.41677852348994
2023-09-30T15:26:43.235Z,31.9791946308725
2023-09-30T15:30:02.908Z,30.03691275167784
2023-09-30T15:33:23.030Z,29.316778523489944
2023-09-30T15:36:42.622Z,27.399328859060386
2023-09-30T15:40:01.740Z,25.667785234899327
2023-09-30T15:43:21.638Z,24.948322147651005
2023-09-30T15:46:41.670Z,24.59127516778525
2023-09-30T15:50:01.453Z,24.98255033557047
2023-09-30T15:53:20.354Z,22.9738255033557
2023-09-30T15:56:53.945Z,19.59194630872483
2023-09-30T16:00:16.405Z,18.51610738255033
2023-09-30T16:03:36.125Z,19.34026845637583
2023-09-30T16:06:55.399Z,18.581208053691242
2023-09-30T16:10:16.519Z,17.727516778523487
2023-09-30T16:13:35.348Z,17.05167785234902
2023-09-30T16:20:11.392Z,14.218791946308718
2023-09-30T16:24:45.681Z,11.075838926174495
2023-09-30T16:28:05.689Z,9.063758389261745
2023-09-30T16:31:25.971Z,7.3550335570469745
2023-09-30T16:34:45.389Z,6.704026845637602
2023-09-30T16:38:05.289Z,6.628187919463089
2023-09-30T16:41:24.449Z,5.896644295302012
2023-09-30T16:44:44.026Z,4.543624161073827
2023-09-30T16:48:03.026Z,2.939597315436242
2023-09-30T16:51:22.759Z,0.0
2023-09-30T16:54:42.635Z,0.0
2023-09-30T16:58:02.827Z,0.0
2023-09-30T17:01:23.092Z,0.0
2023-09-30T17:04:42.992Z,0.0
2023-09-30T17:09:57.633Z,0.0
2023-09-30T17:13:17.552Z,0.0
2023-09-30T17:19:39.050Z,0.0
2023-09-30T17:24:06.808Z,0.0
2023-09-30T17:27:25.769Z,0.0
2023-09-30T17:30:45.454Z,0.0
2023-09-30T17:34:05.276Z,0.0
2023-09-30T17:37:24.397Z,0.0
2023-09-30T17:43:59.191Z,0.0
2023-09-30T17:47:19.232Z,0.0
2023-09-30T17:50:38.720Z,0.0
2023-09-30T17:53:58.956Z,0.0
2023-09-30T17:58:32.216Z,0.0
2023-09-30T18:01:52.028Z,0.0
2023-09-30T18:09:58.863Z,0.0
2023-09-30T18:13:19.056Z,0.0
2023-09-30T18:16:38.869Z,0.0
2023-09-30T18:22:46.787Z,0.0
2023-09-30T18:26:05.760Z,0.0
2023-09-30T18:29:25.630Z,0.0
2023-09-30T18:32:45.082Z,0.0
2023-09-30T18:36:04.481Z,0.0
2023-09-30T18:39:45.483Z,0.0
2023-09-30T18:43:04.476Z,0.0
2023-09-30T18:46:24.262Z,0.0
2023-09-30T18:49:43.999Z,0.0
2023-09-30T18:53:03.211Z,0.0
2023-09-30T18:56:23.366Z,0.0
2023-09-30T19:04:47.207Z,0.0
2023-09-30T19:08:06.735Z,0.0
2023-09-30T19:11:26.815Z,0.0
2023-09-30T19:14:46.090Z,0.0
2023-09-30T19:18:05.588Z,0.0
2023-09-30T19:21:24.545Z,0.0
2023-09-30T19:24:44.251Z,0.0
2023-09-30T19:28:04.122Z,0.0
2023-09-30T19:31:24.286Z,0.0
2023-09-30T19:34:43.875Z,0.0
2023-09-30T19:38:03.048Z,0.0
2023-09-30T19:41:22.815Z,0.0
2023-09-30T19:44:42.496Z,0.0
2023-09-30T19:48:01.700Z,0.0
2023-09-30T19:51:21.537Z,0.0
2023-09-30T19:54:41.266Z,0.0
2023-09-30T19:59:49.339Z,0.0
2023-09-30T20:03:09.190Z,0.0
2023-09-30T20:07:55.339Z,0.0
2023-09-30T20:11:15.209Z,0.0
2023-09-30T20:14:35.205Z,0.0
2023-09-30T20:17:54.811Z,0.0
2023-09-30T20:21:14.874Z,0.0
2023-09-30T20:24:34.137Z,0.0
2023-09-30T20:27:53.864Z,0.0
2023-09-30T20:31:13.655Z,0.0
2023-09-30T20:34:32.647Z,0.0
2023-09-30T20:37:51.624Z,0.0
2023-09-30T20:41:11.652Z,0.0
2023-09-30T20:44:31.074Z,0.0
2023-09-30T20:47:50.500Z,0.0
2023-09-30T20:51:09.814Z,0.0
2023-09-30T20:54:29.933Z,0.0
2023-09-30T20:57:49.746Z,0.0
2023-09-30T21:01:08.831Z,0.0
2023-09-30T21:04:28.504Z,0.0
2023-09-30T21:07:48.225Z,0.0
2023-09-30T21:11:07.946Z,0.0
2023-09-30T21:14:27.281Z,0.0
2023-09-30T21:17:46.902Z,0.0
2023-09-30T21:21:06.234Z,0.0
2023-09-30T21:26:28.702Z,0.0
2023-09-30T21:29:48.582Z,0.0
2023-09-30T21:33:08.250Z,0.0
2023-09-30T21:36:27.349Z,0.0
2023-09-30T21:39:46.671Z,0.0
2023-09-30T21:43:05.897Z,0.0
2023-09-30T21:46:25.742Z,0.0
2023-09-30T21:49:45.543Z,0.0
2023-09-30T21:53:04.502Z,0.0
2023-09-30T21:57:27.869Z,0.0
2023-09-30T22:06:14.207Z,0.0
2023-09-30T22:09:33.709Z,0.0
2023-09-30T22:12:52.547Z,0.0
2023-09-30T22:16:12.641Z,0.0
2023-09-30T22:19:32.496Z,0.0
2023-09-30T22:22:51.911Z,0.0
2023-09-30T22:26:11.258Z,0.0
2023-09-30T22:29:42.911Z,0.0
2023-09-30T22:33:02.070Z,0.0
2023-09-30T22:36:27.429Z,0.0
2023-09-30T22:39:55.181Z,0.0
2023-09-30T22:45:59.343Z,0.0
2023-09-30T22:49:19.236Z,0.0
2023-09-30T22:52:38.727Z,0.0
2023-09-30T22:55:58.221Z,0.0
2023-09-30T22:59:18.405Z,0.0
2023-09-30T23:02:37.820Z,0.0
2023-09-30T23:08:41.217Z,0.0
2023-09-30T23:12:00.777Z,0.0
2023-09-30T23:15:20.405Z,0.0
2023-09-30T23:18:40.628Z,0.0
2023-09-30T23:22:00.460Z,0.0
2023-09-30T23:28:27.343Z,0.0
2023-09-30T23:31:47.855Z,0.0
2023-09-30T23:35:07.063Z,0.0
2023-09-30T23:38:27.369Z,0.0
2023-09-30T23:41:47.027Z,0.0
2023-09-30T23:45:06.838Z,0.0
2023-09-30T23:48:26.252Z,0.0
2023-09-30T23:51:45.789Z,0.0
2023-09-30T23:55:05.709Z,0.0
2023-09-30T23:58:25.759Z,0.0
